createdAt,value
2022-11-05T00:01:52.709Z,100783.84
2022-11-05T00:04:42.159Z,100778.69
2022-11-05T00:07:39.398Z,100781.84
2022-11-05T00:10:11.705Z,100778.47
2022-11-05T00:12:59.062Z,100786.28
2022-11-05T00:15:45.843Z,100781.22
2022-11-05T00:18:13.531Z,100782.09
2022-11-05T00:20:41.697Z,100792.63
2022-11-05T00:23:27.914Z,100791.78
2022-11-05T00:26:00.490Z,100794.06
2022-11-05T00:28:28.770Z,100792.44
2022-11-05T00:31:01.415Z,100800.88
2022-11-05T00:33:29.221Z,100802.75
2022-11-05T00:35:57.209Z,100800.19
2022-11-05T00:38:24.846Z,100799.44
2022-11-05T00:40:52.444Z,100803.56
2022-11-05T00:43:38.801Z,100801.00
2022-11-05T00:46:06.495Z,100811.50
2022-11-05T00:48:53.260Z,100819.16
2022-11-05T00:51:21.051Z,100812.22
2022-11-05T00:53:49.099Z,100813.97
2022-11-05T00:56:16.771Z,100812.25
2022-11-05T00:58:44.359Z,100809.66
2022-11-05T01:01:12.332Z,100820.06
2022-11-05T01:03:40.294Z,100824.22
2022-11-05T01:06:13.916Z,100831.22
2022-11-05T01:08:43.011Z,100831.28
2022-11-05T01:11:34.082Z,100824.34
2022-11-05T01:14:03.126Z,100832.22
2022-11-05T01:16:34.254Z,100835.69
2022-11-05T01:19:03.138Z,100839.91
2022-11-05T01:21:30.779Z,100844.91
2022-11-05T01:24:01.623Z,100847.37
2022-11-05T01:26:29.783Z,100845.91
2022-11-05T01:28:58.363Z,100839.09
2022-11-05T01:31:26.657Z,100843.53
2022-11-05T01:33:54.732Z,100850.56
2022-11-05T01:36:22.449Z,100849.50
2022-11-05T01:38:50.111Z,100854.84
2022-11-05T01:41:21.253Z,100852.97
2022-11-05T01:43:48.878Z,100853.97
2022-11-05T01:46:18.604Z,100861.50
2022-11-05T01:48:48.628Z,100860.59
2022-11-05T01:51:18.842Z,100859.66
2022-11-05T01:53:59.659Z,100870.91
2022-11-05T01:56:31.175Z,100876.56
2022-11-05T01:59:16.713Z,100868.31
2022-11-05T02:01:45.575Z,100869.97
2022-11-05T02:04:21.618Z,100880.44
2022-11-05T02:06:53.481Z,100880.41
2022-11-05T02:09:29.440Z,100887.25
2022-11-05T02:11:57.785Z,100886.00
2022-11-05T02:14:25.543Z,100884.19
2022-11-05T02:17:11.875Z,100890.81
2022-11-05T02:19:58.028Z,100890.63
2022-11-05T02:22:42.269Z,100883.94
2022-11-05T02:25:22.577Z,100888.37
2022-11-05T02:28:09.020Z,100891.84
2022-11-05T02:30:48.078Z,100882.56
2022-11-05T02:33:34.568Z,100885.91
2022-11-05T02:36:05.316Z,100889.69
2022-11-05T02:38:32.986Z,100891.56
2022-11-05T02:41:25.989Z,100899.31
2022-11-05T02:44:00.092Z,100890.56
2022-11-05T02:46:46.473Z,100894.91
2022-11-05T02:49:34.945Z,100903.44
2022-11-05T02:52:06.239Z,100901.41
2022-11-05T02:54:52.374Z,100900.63
2022-11-05T02:57:21.883Z,100907.59
2022-11-05T02:59:49.927Z,100910.34
2022-11-05T03:02:17.768Z,100914.50
2022-11-05T03:04:45.505Z,100908.22
2022-11-05T03:07:24.923Z,100917.19
2022-11-05T03:10:07.364Z,100917.19
2022-11-05T03:12:43.371Z,100924.84
2022-11-05T03:15:27.531Z,100929.19
2022-11-05T03:18:07.758Z,100921.44
2022-11-05T03:20:50.729Z,100925.56
2022-11-05T03:23:21.695Z,100927.50
2022-11-05T03:25:51.976Z,100926.78
2022-11-05T03:28:22.476Z,100929.19
2022-11-05T03:30:51.828Z,100925.97
2022-11-05T03:33:22.670Z,100934.47
2022-11-05T03:36:01.025Z,100940.34
2022-11-05T03:38:31.460Z,100939.69
2022-11-05T03:41:00.956Z,100950.66
2022-11-05T03:43:35.526Z,100945.63
2022-11-05T03:46:07.130Z,100948.25
2022-11-05T03:48:37.229Z,100947.38
2022-11-05T03:51:11.243Z,100948.94
2022-11-05T03:53:44.345Z,100948.81
2022-11-05T03:56:18.558Z,100945.53
2022-11-05T03:58:47.826Z,100952.31
2022-11-05T04:01:15.949Z,100952.97
2022-11-05T04:03:43.983Z,100951.41
2022-11-05T04:06:30.222Z,100948.06
2022-11-05T04:09:16.905Z,100950.38
2022-11-05T04:12:03.029Z,100960.09
2022-11-05T04:14:31.309Z,100959.25
2022-11-05T04:17:09.787Z,100959.44
2022-11-05T04:20:00.220Z,100967.94
2022-11-05T04:22:47.545Z,100974.84
2022-11-05T04:25:16.212Z,100977.31
2022-11-05T04:27:47.278Z,100982.72
2022-11-05T04:30:19.200Z,100990.44
2022-11-05T04:32:57.541Z,100994.03
2022-11-05T04:35:31.827Z,100987.00
2022-11-05T04:40:45.530Z,100987.91
2022-11-05T04:43:15.359Z,100990.34
2022-11-05T04:45:43.420Z,100992.28
2022-11-05T04:48:11.705Z,100991.97
2022-11-05T04:50:39.635Z,100986.66
2022-11-05T04:53:07.171Z,100988.50
2022-11-05T04:55:35.078Z,100992.91
2022-11-05T04:58:02.520Z,100998.00
2022-11-05T05:00:30.026Z,100997.47
2022-11-05T05:02:57.885Z,100995.50
2022-11-05T05:05:25.381Z,101005.63
2022-11-05T05:07:52.863Z,101011.75
2022-11-05T05:10:20.764Z,101014.62
2022-11-05T05:12:48.790Z,101015.34
2022-11-05T05:15:16.317Z,101017.84
2022-11-05T05:17:44.200Z,101017.84
2022-11-05T05:20:30.024Z,101017.75
2022-11-05T05:22:57.933Z,101028.97
2022-11-05T05:25:25.824Z,101031.50
2022-11-05T05:27:53.598Z,101027.88
2022-11-05T05:30:24.927Z,101036.31
2022-11-05T05:32:52.639Z,101044.22
2022-11-05T05:35:20.272Z,101040.50
2022-11-05T05:37:48.160Z,101037.94
2022-11-05T05:40:15.778Z,101038.38
2022-11-05T05:42:43.725Z,101049.56
2022-11-05T05:45:12.726Z,101053.84
2022-11-05T05:47:43.429Z,101052.28
2022-11-05T05:50:14.130Z,101050.56
2022-11-05T05:52:42.136Z,101050.66
2022-11-05T05:55:12.875Z,101062.53
2022-11-05T05:57:40.475Z,101069.94
2022-11-05T06:00:09.162Z,101070.97
2022-11-05T06:02:42.033Z,101060.34
2022-11-05T06:05:13.372Z,101061.06
2022-11-05T06:07:40.969Z,101070.84
2022-11-05T06:10:08.807Z,101068.19
2022-11-05T06:12:36.957Z,101061.09
2022-11-05T06:15:04.810Z,101067.66
2022-11-05T06:17:33.323Z,101072.72
2022-11-05T06:20:01.386Z,101070.38
2022-11-05T06:22:30.489Z,101072.66
2022-11-05T06:24:58.227Z,101080.41
2022-11-05T06:27:26.379Z,101080.22
2022-11-05T06:29:54.119Z,101086.34
2022-11-05T06:32:21.773Z,101089.69
2022-11-05T06:34:49.900Z,101083.50
2022-11-05T06:37:17.559Z,101081.94
2022-11-05T06:39:45.021Z,101087.81
2022-11-05T06:42:24.235Z,101087.72
2022-11-05T06:44:52.402Z,101085.41
2022-11-05T06:47:20.265Z,101091.97
2022-11-05T06:49:47.898Z,101099.66
2022-11-05T06:52:16.119Z,101100.41
2022-11-05T06:54:44.203Z,101093.41
2022-11-05T06:57:12.924Z,101092.59
2022-11-05T06:59:40.556Z,101100.75
2022-11-05T07:02:11.919Z,101098.91
2022-11-05T07:04:39.469Z,101101.28
2022-11-05T07:07:06.936Z,101104.19
2022-11-05T07:09:34.919Z,101106.06
2022-11-05T07:12:02.424Z,101109.03
2022-11-05T07:14:29.858Z,101107.59
2022-11-05T07:16:57.938Z,101115.22
2022-11-05T07:19:25.556Z,101105.31
2022-11-05T07:21:53.101Z,101109.69
2022-11-05T07:24:20.993Z,101109.03
2022-11-05T07:26:48.487Z,101111.16
2022-11-05T07:29:16.009Z,101117.56
2022-11-05T07:31:43.980Z,101114.34
2022-11-05T07:34:11.515Z,101113.56
2022-11-05T07:36:39.829Z,101115.13
2022-11-05T07:39:07.698Z,101112.34
2022-11-05T07:41:35.229Z,101113.19
2022-11-05T07:44:04.222Z,101116.38
2022-11-05T07:46:32.207Z,101121.97
2022-11-05T07:48:59.673Z,101122.66
2022-11-05T07:51:27.141Z,101122.47
2022-11-05T07:53:55.243Z,101121.56
2022-11-05T07:56:22.796Z,101131.25
2022-11-05T07:58:50.368Z,101128.41
2022-11-05T08:01:18.334Z,101135.31
2022-11-05T08:03:46.450Z,101132.19
2022-11-05T08:06:14.205Z,101139.06
2022-11-05T08:08:42.043Z,101134.59
2022-11-05T08:11:10.934Z,101139.41
2022-11-05T08:13:38.875Z,101135.03
2022-11-05T08:16:06.723Z,101142.91
2022-11-05T08:18:34.750Z,101142.09
2022-11-05T08:21:03.690Z,101137.59
2022-11-05T08:23:34.405Z,101138.37
2022-11-05T08:26:03.166Z,101140.69
2022-11-05T08:28:30.812Z,101143.31
2022-11-05T08:30:58.734Z,101141.91
2022-11-05T08:33:27.857Z,101150.00
2022-11-05T08:35:55.600Z,101151.00
2022-11-05T08:38:23.109Z,101155.22
2022-11-05T08:40:56.371Z,101157.81
2022-11-05T08:43:24.286Z,101154.34
2022-11-05T08:45:52.627Z,101147.62
2022-11-05T08:48:20.397Z,101157.78
2022-11-05T08:50:48.925Z,101157.19
2022-11-05T08:53:17.288Z,101161.63
2022-11-05T08:55:47.893Z,101167.72
2022-11-05T08:58:17.313Z,101164.00
2022-11-05T09:00:46.623Z,101165.53
2022-11-05T09:03:14.807Z,101167.50
2022-11-05T09:05:43.299Z,101159.00
2022-11-05T09:08:12.895Z,101171.16
2022-11-05T09:10:41.252Z,101171.09
2022-11-05T09:13:14.653Z,101170.66
2022-11-05T09:15:46.135Z,101170.72
2022-11-05T09:18:14.473Z,101168.16
2022-11-05T09:20:42.257Z,101166.47
2022-11-05T09:23:11.125Z,101170.78
2022-11-05T09:25:41.884Z,101175.81
2022-11-05T09:28:15.969Z,101171.56
2022-11-05T09:30:45.537Z,101168.31
2022-11-05T09:33:13.836Z,101171.84
2022-11-05T09:35:42.091Z,101176.28
2022-11-05T09:38:09.655Z,101172.56
2022-11-05T09:40:56.411Z,101179.25
2022-11-05T09:46:16.938Z,101171.97
2022-11-05T09:48:46.650Z,101168.75
2022-11-05T09:51:22.396Z,101167.84
2022-11-05T09:53:51.695Z,101168.56
2022-11-05T09:56:33.500Z,101171.22
2022-11-05T09:59:03.411Z,101173.72
2022-11-05T10:01:35.119Z,101176.37
2022-11-05T10:04:08.207Z,101177.97
2022-11-05T10:06:37.717Z,101176.81
2022-11-05T10:09:18.384Z,101186.44
2022-11-05T10:11:48.482Z,101194.88
2022-11-05T10:14:23.889Z,101188.84
2022-11-05T10:16:54.180Z,101189.97
2022-11-05T10:19:26.766Z,101198.38
2022-11-05T10:22:10.778Z,101193.56
2022-11-05T10:24:41.465Z,101193.22
2022-11-05T10:27:14.477Z,101196.22
2022-11-05T10:29:43.604Z,101197.50
2022-11-05T10:32:13.018Z,101201.78
2022-11-05T10:34:40.822Z,101197.88
2022-11-05T10:37:09.705Z,101202.22
2022-11-05T10:39:40.208Z,101204.38
2022-11-05T10:42:26.553Z,101199.06
2022-11-05T10:45:16.998Z,101203.28
2022-11-05T10:48:03.314Z,101199.47
2022-11-05T10:50:31.530Z,101207.44
2022-11-05T10:53:00.678Z,101204.94
2022-11-05T10:55:30.085Z,101211.06
2022-11-05T10:58:08.737Z,101211.31
2022-11-05T11:00:36.977Z,101213.37
2022-11-05T11:03:06.256Z,101208.66
2022-11-05T11:05:36.356Z,101216.56
2022-11-05T11:08:22.264Z,101217.59
2022-11-05T11:10:55.774Z,101214.66
2022-11-05T11:13:25.337Z,101216.28
2022-11-05T11:15:53.597Z,101224.47
2022-11-05T11:18:26.860Z,101217.81
2022-11-05T11:21:04.793Z,101215.31
2022-11-05T11:23:37.759Z,101212.53
2022-11-05T11:26:06.244Z,101207.44
2022-11-05T11:28:38.591Z,101220.41
2022-11-05T11:31:06.564Z,101224.72
2022-11-05T11:33:34.402Z,101221.34
2022-11-05T11:36:01.910Z,101231.88
2022-11-05T11:38:31.654Z,101236.87
2022-11-05T11:41:11.198Z,101232.50
2022-11-05T11:43:41.243Z,101238.94
2022-11-05T11:46:17.315Z,101233.34
2022-11-05T11:48:47.894Z,101238.62
2022-11-05T11:51:37.085Z,101240.16
2022-11-05T11:54:05.418Z,101245.03
2022-11-05T11:56:43.999Z,101244.00
2022-11-05T11:59:35.351Z,101241.09
2022-11-05T12:02:23.644Z,101244.09
2022-11-05T12:04:59.883Z,101248.44
2022-11-05T12:07:36.861Z,101251.56
2022-11-05T12:10:23.768Z,101250.94
2022-11-05T12:12:54.254Z,101256.44
2022-11-05T12:15:28.197Z,101257.44
2022-11-05T12:17:55.785Z,101249.88
2022-11-05T12:20:23.710Z,101259.28
2022-11-05T12:23:18.246Z,101254.06
2022-11-05T12:25:52.851Z,101248.59
2022-11-05T12:28:57.822Z,101249.56
2022-11-05T12:31:36.027Z,101256.81
2022-11-05T12:34:30.235Z,101262.09
2022-11-05T12:37:20.360Z,101255.97
2022-11-05T12:40:03.940Z,101258.47
2022-11-05T12:42:34.782Z,101254.25
2022-11-05T12:45:02.613Z,101260.00
2022-11-05T12:47:45.379Z,101258.38
2022-11-05T12:50:27.101Z,101263.72
2022-11-05T12:52:54.695Z,101262.09
2022-11-05T12:55:24.515Z,101269.78
2022-11-05T12:57:57.898Z,101262.44
2022-11-05T13:00:26.596Z,101270.66
2022-11-05T13:03:01.831Z,101272.97
2022-11-05T13:05:38.125Z,101283.72
2022-11-05T13:08:27.995Z,101284.56
2022-11-05T13:10:58.643Z,101287.25
2022-11-05T13:13:35.487Z,101288.19
2022-11-05T13:16:22.198Z,101288.19
2022-11-05T13:18:51.994Z,101292.50
2022-11-05T13:21:25.035Z,101289.94
2022-11-05T13:24:02.736Z,101295.88
2022-11-05T13:26:38.140Z,101297.69
2022-11-05T13:29:13.191Z,101303.72
2022-11-05T13:31:44.477Z,101300.31
2022-11-05T13:34:12.685Z,101305.44
2022-11-05T13:37:08.019Z,101314.87
2022-11-05T13:39:56.358Z,101316.81
2022-11-05T13:42:37.111Z,101320.31
2022-11-05T13:45:11.101Z,101319.38
2022-11-05T13:47:50.818Z,101323.62
2022-11-05T13:50:18.692Z,101328.03
2022-11-05T13:52:58.874Z,101324.66
2022-11-05T13:55:36.419Z,101326.47
2022-11-05T13:58:18.422Z,101328.97
2022-11-05T14:01:06.683Z,101328.66
2022-11-05T14:03:34.647Z,101337.09
2022-11-05T14:06:03.901Z,101335.59
2022-11-05T14:08:36.089Z,101335.44
2022-11-05T14:11:05.347Z,101335.59
2022-11-05T14:13:35.490Z,101341.75
2022-11-05T14:16:06.134Z,101353.00
2022-11-05T14:18:44.916Z,101348.69
2022-11-05T14:21:27.997Z,101354.91
2022-11-05T14:23:57.452Z,101348.03
2022-11-05T14:26:24.964Z,101353.22
2022-11-05T14:28:52.483Z,101353.91
2022-11-05T14:31:20.618Z,101358.22
2022-11-05T14:34:08.403Z,101354.63
2022-11-05T14:36:37.487Z,101350.31
2022-11-05T14:39:19.859Z,101353.28
2022-11-05T14:42:06.455Z,101353.31
2022-11-05T14:44:35.755Z,101360.06
2022-11-05T14:47:05.930Z,101363.28
2022-11-05T14:49:38.563Z,101365.25
2022-11-05T14:52:10.335Z,101365.25
2022-11-05T14:54:44.363Z,101353.28
2022-11-05T14:57:14.881Z,101355.03
2022-11-05T14:59:52.089Z,101356.91
2022-11-05T15:02:25.781Z,101358.69
2022-11-05T15:05:13.325Z,101359.31
2022-11-05T15:07:41.195Z,101355.87
2022-11-05T15:10:16.108Z,101349.81
2022-11-05T15:12:46.933Z,101356.72
2022-11-05T15:15:28.716Z,101364.34
2022-11-05T15:18:17.499Z,101355.97
2022-11-05T15:20:47.133Z,101360.28
2022-11-05T15:23:16.970Z,101357.69
2022-11-05T15:25:53.522Z,101361.63
2022-11-05T15:28:38.369Z,101360.91
2022-11-05T15:31:15.343Z,101362.75
2022-11-05T15:33:44.893Z,101369.84
2022-11-05T15:36:22.874Z,101370.53
2022-11-05T15:39:08.511Z,101376.50
2022-11-05T15:41:38.648Z,101382.25
2022-11-05T15:44:06.625Z,101382.75
2022-11-05T15:46:34.177Z,101381.72
2022-11-05T15:49:06.965Z,101379.00
2022-11-05T15:51:36.404Z,101386.06
2022-11-05T15:56:57.319Z,101387.88
2022-11-05T15:59:26.024Z,101393.88
2022-11-05T16:01:54.118Z,101398.38
2022-11-05T16:04:30.778Z,101402.72
2022-11-05T16:07:00.401Z,101392.38
2022-11-05T16:09:29.903Z,101401.09
2022-11-05T16:12:16.491Z,101392.31
2022-11-05T16:14:56.513Z,101396.41
2022-11-05T16:17:30.423Z,101401.62
2022-11-05T16:19:58.519Z,101402.78
2022-11-05T16:22:26.612Z,101405.09
2022-11-05T16:24:54.233Z,101400.78
2022-11-05T16:27:22.537Z,101407.56
2022-11-05T16:29:54.361Z,101407.44
2022-11-05T16:32:31.821Z,101399.94
2022-11-05T16:35:04.773Z,101395.41
2022-11-05T16:37:40.373Z,101400.56
2022-11-05T16:40:15.306Z,101398.84
2022-11-05T16:42:44.002Z,101394.59
2022-11-05T16:45:16.137Z,101399.69
2022-11-05T16:47:47.490Z,101399.75
2022-11-05T16:50:16.921Z,101401.69
2022-11-05T16:52:46.491Z,101399.22
2022-11-05T16:55:15.081Z,101406.34
2022-11-05T16:57:43.476Z,101412.50
2022-11-05T17:00:14.050Z,101409.97
2022-11-05T17:02:41.871Z,101402.34
2022-11-05T17:05:24.455Z,101396.31
2022-11-05T17:07:52.740Z,101406.59
2022-11-05T17:10:21.399Z,101404.03
2022-11-05T17:12:49.487Z,101404.84
2022-11-05T17:15:22.486Z,101403.19
2022-11-05T17:17:50.545Z,101409.69
2022-11-05T17:20:27.797Z,101427.88
2022-11-05T17:22:55.996Z,101420.72
2022-11-05T17:25:24.759Z,101419.06
2022-11-05T17:27:52.751Z,101422.28
2022-11-05T17:30:23.479Z,101429.09
2022-11-05T17:32:51.958Z,101438.59
2022-11-05T17:35:23.146Z,101438.62
2022-11-05T17:37:51.165Z,101439.47
2022-11-05T17:40:20.698Z,101429.06
2022-11-05T17:42:48.526Z,101424.16
2022-11-05T17:45:16.580Z,101426.56
2022-11-05T17:47:45.887Z,101431.06
2022-11-05T17:50:14.612Z,101433.00
2022-11-05T17:52:43.058Z,101447.63
2022-11-05T17:55:16.977Z,101447.75
2022-11-05T17:57:48.618Z,101447.91
2022-11-05T18:00:17.257Z,101440.94
2022-11-05T18:02:46.336Z,101446.03
2022-11-05T18:05:16.241Z,101445.78
2022-11-05T18:07:51.643Z,101444.72
2022-11-05T18:10:19.404Z,101439.59
2022-11-05T18:12:47.358Z,101445.56
2022-11-05T18:15:15.300Z,101443.09
2022-11-05T18:17:43.262Z,101440.41
2022-11-05T18:20:17.395Z,101449.00
2022-11-05T18:22:46.446Z,101446.78
2022-11-05T18:25:14.402Z,101448.38
2022-11-05T18:27:42.561Z,101452.56
2022-11-05T18:30:11.398Z,101452.69
2022-11-05T18:32:39.393Z,101450.09
2022-11-05T18:35:07.041Z,101451.03
2022-11-05T18:37:34.797Z,101441.41
2022-11-05T18:40:02.751Z,101456.22
2022-11-05T18:42:30.318Z,101462.34
2022-11-05T18:44:58.016Z,101459.88
2022-11-05T18:47:26.019Z,101456.56
2022-11-05T18:49:53.622Z,101460.78
2022-11-05T18:52:21.175Z,101460.63
2022-11-05T18:54:49.145Z,101464.00
2022-11-05T18:57:16.644Z,101471.94
2022-11-05T18:59:47.289Z,101477.25
2022-11-05T19:02:15.508Z,101469.41
2022-11-05T19:04:55.338Z,101469.16
2022-11-05T19:07:31.765Z,101472.50
2022-11-05T19:09:59.376Z,101470.72
2022-11-05T19:12:26.846Z,101471.56
2022-11-05T19:14:59.348Z,101471.56
2022-11-05T19:17:31.017Z,101483.69
2022-11-05T19:19:58.968Z,101491.37
2022-11-05T19:22:26.536Z,101502.06
2022-11-05T19:24:54.109Z,101500.28
2022-11-05T19:27:22.103Z,101495.13
2022-11-05T19:29:49.639Z,101503.56
2022-11-05T19:32:28.526Z,101495.03
2022-11-05T19:34:58.696Z,101498.34
2022-11-05T19:37:26.446Z,101505.19
2022-11-05T19:39:53.904Z,101504.34
2022-11-05T19:42:21.749Z,101509.59
2022-11-05T19:44:49.284Z,101506.00
2022-11-05T19:47:16.805Z,101506.78
2022-11-05T19:49:44.809Z,101501.81
2022-11-05T19:52:15.286Z,101507.78
2022-11-05T19:54:42.763Z,101508.63
2022-11-05T19:57:10.612Z,101509.47
2022-11-05T19:59:38.161Z,101506.84
2022-11-05T20:02:07.525Z,101507.69
2022-11-05T20:04:38.505Z,101505.94
2022-11-05T20:07:05.986Z,101504.19
2022-11-05T20:09:34.137Z,101513.66
2022-11-05T20:12:02.129Z,101505.03
2022-11-05T20:14:32.417Z,101510.25
2022-11-05T20:17:00.159Z,101504.19
2022-11-05T20:19:28.528Z,101506.78
2022-11-05T20:21:59.546Z,101508.53
2022-11-05T20:24:27.138Z,101512.00
2022-11-05T20:26:55.413Z,101514.53
2022-11-05T20:29:23.635Z,101524.03
2022-11-05T20:31:51.564Z,101519.72
2022-11-05T20:34:19.357Z,101517.12
2022-11-05T20:36:46.852Z,101518.81
2022-11-05T20:39:14.402Z,101519.66
2022-11-05T20:41:42.275Z,101521.41
2022-11-05T20:44:10.131Z,101518.84
2022-11-05T20:46:37.602Z,101518.81
2022-11-05T20:49:08.589Z,101518.81
2022-11-05T20:51:36.069Z,101516.22
2022-11-05T20:54:04.394Z,101523.97
2022-11-05T20:56:34.892Z,101526.56
2022-11-05T20:59:02.998Z,101528.25
2022-11-05T21:01:32.094Z,101524.81
2022-11-05T21:04:03.798Z,101525.66
2022-11-05T21:06:32.079Z,101519.66
2022-11-05T21:09:00.166Z,101523.94
2022-11-05T21:11:27.905Z,101525.66
2022-11-05T21:13:55.827Z,101518.75
2022-11-05T21:16:23.786Z,101521.34
2022-11-05T21:18:51.634Z,101516.13
2022-11-05T21:21:20.307Z,101517.00
2022-11-05T21:23:48.301Z,101525.63
2022-11-05T21:26:18.095Z,101517.06
2022-11-05T21:28:45.777Z,101510.16
2022-11-05T21:31:13.728Z,101515.34
2022-11-05T21:33:41.421Z,101523.94
2022-11-05T21:36:10.722Z,101516.16
2022-11-05T21:38:39.400Z,101518.75
2022-11-05T21:41:07.460Z,101511.91
2022-11-05T21:43:35.310Z,101525.81
2022-11-05T21:46:04.458Z,101523.97
2022-11-05T21:48:32.495Z,101522.25
2022-11-05T21:51:18.794Z,101521.41
2022-11-05T21:54:05.470Z,101511.91
2022-11-05T21:56:51.942Z,101512.75
2022-11-05T21:59:39.748Z,101522.19
2022-11-05T22:02:08.068Z,101529.09
2022-11-05T22:04:37.325Z,101525.63
2022-11-05T22:07:05.095Z,101528.25
2022-11-05T22:09:33.061Z,101523.09
2022-11-05T22:12:01.307Z,101519.50
2022-11-05T22:14:29.175Z,101519.59
2022-11-05T22:16:57.269Z,101515.22
2022-11-05T22:19:25.680Z,101523.09
2022-11-05T22:21:53.510Z,101521.41
2022-11-05T22:24:21.060Z,101516.28
2022-11-05T22:26:49.592Z,101514.53
2022-11-05T22:29:17.763Z,101522.34
2022-11-05T22:31:45.428Z,101518.81
2022-11-05T22:34:13.490Z,101526.53
2022-11-05T22:36:40.997Z,101530.78
2022-11-05T22:39:08.877Z,101530.78
2022-11-05T22:41:36.956Z,101535.94
2022-11-05T22:44:04.795Z,101540.28
2022-11-05T22:46:32.436Z,101538.69
2022-11-05T22:49:00.593Z,101548.09
2022-11-05T22:51:29.991Z,101551.50
2022-11-05T22:53:58.373Z,101551.47
2022-11-05T22:56:28.035Z,101552.34
2022-11-05T22:58:55.607Z,101545.50
2022-11-05T23:01:23.833Z,101550.62
2022-11-05T23:03:52.820Z,101551.50
2022-11-05T23:06:40.781Z,101556.63
2022-11-05T23:09:35.157Z,101552.34
2022-11-05T23:12:03.877Z,101557.56
2022-11-05T23:14:32.051Z,101561.88
2022-11-05T23:17:17.910Z,101567.91
2022-11-05T23:20:04.272Z,101562.91
2022-11-05T23:22:50.589Z,101562.09
2022-11-05T23:25:22.409Z,101569.81
2022-11-05T23:27:52.171Z,101562.19
2022-11-05T23:30:21.991Z,101569.09
2022-11-05T23:32:49.914Z,101568.19
2022-11-05T23:35:17.517Z,101570.84
2022-11-05T23:38:03.887Z,101570.78
2022-11-05T23:40:52.373Z,101577.62
2022-11-05T23:43:38.793Z,101579.28
2022-11-05T23:46:25.082Z,101593.03
2022-11-05T23:48:52.969Z,101588.78
2022-11-05T23:51:20.456Z,101587.13
2022-11-05T23:53:47.916Z,101589.69
2022-11-05T23:56:16.150Z,101583.63
2022-11-05T23:58:44.320Z,101587.09
